createdAt,value
2022-10-05T00:01:05.515Z,76.40
2022-10-05T00:03:37.050Z,76.40
2022-10-05T00:06:04.931Z,76.30
2022-10-05T00:08:34.018Z,76.40
2022-10-05T00:11:00.961Z,76.50
2022-10-05T00:13:30.719Z,76.30
2022-10-05T00:16:12.234Z,76.20
2022-10-05T00:18:39.480Z,76.20
2022-10-05T00:21:26.989Z,76.10
2022-10-05T00:23:57.581Z,76.20
2022-10-05T00:26:26.767Z,76.10
2022-10-05T00:28:54.954Z,75.70
2022-10-05T00:31:30.714Z,75.90
2022-10-05T00:33:58.039Z,75.90
2022-10-05T00:36:26.226Z,75.60
2022-10-05T00:38:54.074Z,75.70
2022-10-05T00:42:07.278Z,75.40
2022-10-05T00:45:03.220Z,75.40
2022-10-05T00:47:51.203Z,75.50
2022-10-05T00:50:36.973Z,75.40
2022-10-05T00:53:24.572Z,75.30
2022-10-05T00:55:54.056Z,75.20
2022-10-05T00:58:48.865Z,75.10
2022-10-05T01:01:20.175Z,75.20
2022-10-05T01:03:46.859Z,75.00
2022-10-05T01:06:39.458Z,74.90
2022-10-05T01:09:23.670Z,74.80
2022-10-05T01:12:05.082Z,74.70
2022-10-05T01:14:50.781Z,74.70
2022-10-05T01:17:26.319Z,74.60
2022-10-05T01:20:10.963Z,74.40
2022-10-05T01:22:49.323Z,74.50
2022-10-05T01:25:30.652Z,74.30
2022-10-05T01:28:32.766Z,74.20
2022-10-05T01:31:05.574Z,74.40
2022-10-05T01:33:46.587Z,74.50
2022-10-05T01:36:32.117Z,74.40
2022-10-05T01:39:25.633Z,74.30
2022-10-05T01:42:07.238Z,74.40
2022-10-05T01:44:55.517Z,74.70
2022-10-05T01:47:29.901Z,74.40
2022-10-05T01:50:25.859Z,74.50
2022-10-05T01:53:27.823Z,74.10
2022-10-05T01:56:24.656Z,74.00
2022-10-05T01:59:29.687Z,74.10
2022-10-05T02:02:03.272Z,74.10
2022-10-05T02:05:01.075Z,74.20
2022-10-05T02:07:32.615Z,74.20
2022-10-05T02:10:04.702Z,74.20
2022-10-05T02:12:36.543Z,74.20
2022-10-05T02:15:12.532Z,74.20
2022-10-05T02:17:45.483Z,74.00
2022-10-05T02:20:18.682Z,74.20
2022-10-05T02:22:49.241Z,73.90
2022-10-05T02:25:23.018Z,74.50
2022-10-05T02:28:08.250Z,74.30
2022-10-05T02:30:41.354Z,74.40
2022-10-05T02:33:37.532Z,74.40
2022-10-05T02:36:26.597Z,74.10
2022-10-05T02:39:24.177Z,74.30
2022-10-05T02:41:59.738Z,74.20
2022-10-05T02:44:47.765Z,74.20
2022-10-05T02:47:37.473Z,73.80
2022-10-05T02:50:30.322Z,74.10
2022-10-05T02:53:02.733Z,73.70
2022-10-05T02:55:53.548Z,73.60
2022-10-05T02:58:24.858Z,73.60
2022-10-05T03:01:07.958Z,74.00
2022-10-05T03:04:19.373Z,73.80
2022-10-05T03:06:59.270Z,73.60
2022-10-05T03:09:31.398Z,74.10
2022-10-05T03:12:11.521Z,74.10
2022-10-05T03:14:47.981Z,73.30
2022-10-05T03:17:20.691Z,73.20
2022-10-05T03:20:19.281Z,73.10
2022-10-05T03:22:51.014Z,73.20
2022-10-05T03:25:41.752Z,73.10
2022-10-05T03:28:23.197Z,73.00
2022-10-05T03:30:56.271Z,72.90
2022-10-05T03:33:47.975Z,72.80
2022-10-05T03:36:38.654Z,72.60
2022-10-05T03:39:19.792Z,72.50
2022-10-05T03:41:49.326Z,72.60
2022-10-05T03:44:27.954Z,72.40
2022-10-05T03:47:32.929Z,72.30
2022-10-05T03:50:11.995Z,72.20
2022-10-05T03:52:50.219Z,72.40
2022-10-05T03:55:31.110Z,72.40
2022-10-05T03:58:14.282Z,72.30
2022-10-05T04:00:46.117Z,72.00
2022-10-05T04:03:17.858Z,72.00
2022-10-05T04:05:55.537Z,71.90
2022-10-05T04:08:54.270Z,71.90
2022-10-05T04:11:26.655Z,71.80
2022-10-05T04:14:02.624Z,71.60
2022-10-05T04:16:37.822Z,71.70
2022-10-05T04:19:23.770Z,71.80
2022-10-05T04:22:11.790Z,71.90
2022-10-05T04:25:06.313Z,71.80
2022-10-05T04:28:10.254Z,71.70
2022-10-05T04:30:41.027Z,71.70
2022-10-05T04:33:12.565Z,71.80
2022-10-05T04:35:51.349Z,71.70
2022-10-05T04:38:43.605Z,71.70
2022-10-05T04:41:42.410Z,71.60
2022-10-05T04:44:27.262Z,71.60
2022-10-05T04:47:01.729Z,71.70
2022-10-05T04:49:43.532Z,71.60
2022-10-05T04:52:32.650Z,71.40
2022-10-05T04:55:47.860Z,71.60
2022-10-05T04:58:41.397Z,71.60
2022-10-05T05:01:32.188Z,71.70
2022-10-05T05:04:11.596Z,71.60
2022-10-05T05:07:07.572Z,71.40
2022-10-05T05:09:55.528Z,71.50
2022-10-05T05:12:53.261Z,71.40
2022-10-05T05:15:34.594Z,71.40
2022-10-05T05:18:19.646Z,71.30
2022-10-05T05:21:04.107Z,71.40
2022-10-05T05:23:44.406Z,71.30
2022-10-05T05:26:22.967Z,71.30
2022-10-05T05:29:18.033Z,71.40
2022-10-05T05:32:07.918Z,71.60
2022-10-05T05:35:05.697Z,71.50
2022-10-05T05:37:35.917Z,71.70
2022-10-05T05:40:21.500Z,71.60
2022-10-05T05:43:12.790Z,72.00
2022-10-05T05:45:42.504Z,72.60
2022-10-05T05:48:37.912Z,73.00
2022-10-05T05:51:10.938Z,73.30
2022-10-05T05:53:42.534Z,73.50
2022-10-05T05:56:19.873Z,74.30
2022-10-05T05:58:54.901Z,75.20
2022-10-05T06:01:34.240Z,75.30
2022-10-05T06:04:14.766Z,75.50
2022-10-05T06:06:47.790Z,75.50
2022-10-05T06:09:41.794Z,75.60
2022-10-05T06:12:24.159Z,75.60
2022-10-05T06:15:03.835Z,75.80
2022-10-05T06:17:47.484Z,75.80
2022-10-05T06:20:26.921Z,75.80
2022-10-05T06:22:57.893Z,75.90
2022-10-05T06:25:37.859Z,76.00
2022-10-05T06:28:12.530Z,76.10
2022-10-05T06:34:39.399Z,76.20
2022-10-05T06:37:19.516Z,76.30
2022-10-05T06:40:11.134Z,76.40
2022-10-05T06:42:56.767Z,76.40
2022-10-05T06:45:23.481Z,76.60
2022-10-05T06:48:06.183Z,76.70
2022-10-05T06:50:44.618Z,76.80
2022-10-05T06:53:33.834Z,76.80
2022-10-05T06:56:06.382Z,76.80
2022-10-05T06:59:08.981Z,76.80
2022-10-05T07:02:11.520Z,76.90
2022-10-05T07:04:44.379Z,77.10
2022-10-05T07:07:22.724Z,77.10
2022-10-05T07:10:24.576Z,77.20
2022-10-05T07:13:09.411Z,77.30
2022-10-05T07:15:44.647Z,77.30
2022-10-05T07:18:40.773Z,77.40
2022-10-05T07:21:20.374Z,77.40
2022-10-05T07:23:58.635Z,78.30
2022-10-05T07:26:57.252Z,77.60
2022-10-05T07:29:35.289Z,77.80
2022-10-05T07:32:40.895Z,77.70
2022-10-05T07:36:03.807Z,77.80
2022-10-05T07:38:59.447Z,77.90
2022-10-05T07:41:50.682Z,78.00
2022-10-05T07:44:27.003Z,78.90
2022-10-05T07:46:58.103Z,78.10
2022-10-05T07:49:43.457Z,78.10
2022-10-05T07:52:32.371Z,77.90
2022-10-05T07:55:17.681Z,77.90
2022-10-05T07:58:15.147Z,77.60
2022-10-05T08:01:02.487Z,77.50
2022-10-05T08:03:49.757Z,77.20
2022-10-05T08:06:38.217Z,77.00
2022-10-05T08:09:24.357Z,76.70
2022-10-05T08:12:10.633Z,76.70
2022-10-05T08:14:51.286Z,76.50
2022-10-05T08:17:51.844Z,76.40
2022-10-05T08:20:37.770Z,76.30
2022-10-05T08:23:14.400Z,76.10
2022-10-05T08:25:55.269Z,76.30
2022-10-05T08:28:30.014Z,76.30
2022-10-05T08:31:23.450Z,76.30
2022-10-05T08:34:00.873Z,76.20
2022-10-05T08:37:04.876Z,76.30
2022-10-05T08:39:48.837Z,76.20
2022-10-05T08:42:52.685Z,76.10
2022-10-05T08:45:34.044Z,76.10
2022-10-05T08:48:23.212Z,76.00
2022-10-05T08:51:11.361Z,76.00
2022-10-05T08:54:48.353Z,76.00
2022-10-05T08:57:33.593Z,76.00
2022-10-05T09:00:18.054Z,76.00
2022-10-05T09:03:17.060Z,76.10
2022-10-05T09:06:00.305Z,76.90
2022-10-05T09:09:06.314Z,76.30
2022-10-05T09:11:50.746Z,76.30
2022-10-05T09:14:36.243Z,76.40
2022-10-05T09:17:19.725Z,76.40
2022-10-05T09:20:30.260Z,76.50
2022-10-05T09:23:13.598Z,76.60
2022-10-05T09:25:58.841Z,76.70
2022-10-05T09:28:49.576Z,76.90
2022-10-05T09:31:40.265Z,76.90
2022-10-05T09:34:26.016Z,76.90
2022-10-05T09:37:08.090Z,77.00
2022-10-05T09:39:59.146Z,77.00
2022-10-05T09:42:34.161Z,77.20
2022-10-05T09:45:31.264Z,77.20
2022-10-05T09:48:18.744Z,77.40
2022-10-05T09:50:53.866Z,77.40
2022-10-05T09:53:40.762Z,77.50
2022-10-05T09:56:34.481Z,77.50
2022-10-05T09:59:22.376Z,77.60
2022-10-05T10:02:18.234Z,77.70
2022-10-05T10:05:06.812Z,77.90
2022-10-05T10:08:01.123Z,78.00
2022-10-05T10:10:55.477Z,78.00
2022-10-05T10:13:40.910Z,78.00
2022-10-05T10:16:26.744Z,78.00
2022-10-05T10:19:24.055Z,78.00
2022-10-05T10:22:27.466Z,78.00
2022-10-05T10:25:12.956Z,78.10
2022-10-05T10:28:01.283Z,78.10
2022-10-05T10:30:39.736Z,78.10
2022-10-05T10:33:18.274Z,78.20
2022-10-05T10:35:55.840Z,78.40
2022-10-05T10:38:30.993Z,78.40
2022-10-05T10:41:36.012Z,78.50
2022-10-05T10:44:43.102Z,78.60
2022-10-05T10:47:35.348Z,78.80
2022-10-05T10:50:22.927Z,78.90
2022-10-05T10:52:55.633Z,79.00
2022-10-05T10:55:38.028Z,79.20
2022-10-05T11:01:12.406Z,79.20
2022-10-05T11:03:59.665Z,79.20
2022-10-05T11:06:29.109Z,79.30
2022-10-05T11:09:11.449Z,79.40
2022-10-05T11:12:12.017Z,79.40
2022-10-05T11:15:02.385Z,79.50
2022-10-05T11:17:47.220Z,79.50
2022-10-05T11:20:32.233Z,79.60
2022-10-05T11:23:04.807Z,79.80
2022-10-05T11:26:09.542Z,79.80
2022-10-05T11:29:10.280Z,80.00
2022-10-05T11:32:01.236Z,80.00
2022-10-05T11:34:58.948Z,80.10
2022-10-05T11:37:41.773Z,80.10
2022-10-05T11:40:11.249Z,80.30
2022-10-05T11:43:02.177Z,80.30
2022-10-05T11:46:10.556Z,80.40
2022-10-05T11:48:42.943Z,80.50
2022-10-05T11:51:31.585Z,80.60
2022-10-05T11:54:06.717Z,80.60
2022-10-05T11:56:41.983Z,80.70
2022-10-05T11:59:18.941Z,80.80
2022-10-05T12:01:48.249Z,80.90
2022-10-05T12:04:45.378Z,80.90
2022-10-05T12:07:22.408Z,80.90
2022-10-05T12:10:22.709Z,81.10
2022-10-05T12:13:30.085Z,81.00
2022-10-05T12:16:14.553Z,81.10
2022-10-05T12:19:00.003Z,81.20
2022-10-05T12:22:34.050Z,81.20
2022-10-05T12:25:19.153Z,81.30
2022-10-05T12:27:52.010Z,81.40
2022-10-05T12:30:52.069Z,81.50
2022-10-05T12:33:30.934Z,81.50
2022-10-05T12:36:22.450Z,81.60
2022-10-05T12:39:05.709Z,81.60
2022-10-05T12:41:49.705Z,81.70
2022-10-05T12:44:31.666Z,81.70
2022-10-05T12:47:07.148Z,81.80
2022-10-05T12:49:52.266Z,81.80
2022-10-05T12:52:43.540Z,82.00
2022-10-05T12:55:17.123Z,82.40
2022-10-05T12:57:53.022Z,82.10
2022-10-05T13:00:23.191Z,82.00
2022-10-05T13:03:00.125Z,82.10
2022-10-05T13:05:34.919Z,82.10
2022-10-05T13:08:17.753Z,82.20
2022-10-05T13:10:54.213Z,82.20
2022-10-05T13:13:59.894Z,82.20
2022-10-05T13:16:40.679Z,82.40
2022-10-05T13:19:19.542Z,82.40
2022-10-05T13:21:46.621Z,82.40
2022-10-05T13:24:31.421Z,82.40
2022-10-05T13:27:14.005Z,82.40
2022-10-05T13:29:54.337Z,82.40
2022-10-05T13:32:25.566Z,82.40
2022-10-05T13:35:13.508Z,82.40
2022-10-05T13:37:52.055Z,82.40
2022-10-05T13:40:28.527Z,82.40
2022-10-05T13:43:06.667Z,82.60
2022-10-05T13:45:51.207Z,82.60
2022-10-05T13:48:38.509Z,82.70
2022-10-05T13:51:18.188Z,82.80
2022-10-05T13:53:49.230Z,82.70
2022-10-05T13:56:37.438Z,82.80
2022-10-05T13:59:13.711Z,82.80
2022-10-05T14:02:02.142Z,82.90
2022-10-05T14:04:43.144Z,82.90
2022-10-05T14:07:38.923Z,82.90
2022-10-05T14:10:13.614Z,83.00
2022-10-05T14:12:43.384Z,83.00
2022-10-05T14:15:22.186Z,83.10
2022-10-05T14:17:51.226Z,83.20
2022-10-05T14:20:18.060Z,83.20
2022-10-05T14:22:49.280Z,83.20
2022-10-05T14:25:18.091Z,83.30
2022-10-05T14:28:04.387Z,83.20
2022-10-05T14:30:32.740Z,83.30
2022-10-05T14:33:05.390Z,83.30
2022-10-05T14:35:53.706Z,83.30
2022-10-05T14:38:51.131Z,83.40
2022-10-05T14:41:20.829Z,83.40
2022-10-05T14:44:09.581Z,83.50
2022-10-05T14:46:37.343Z,83.50
2022-10-05T14:49:17.001Z,83.50
2022-10-05T14:51:43.886Z,83.60
2022-10-05T14:54:30.554Z,83.60
2022-10-05T14:57:12.302Z,83.70
2022-10-05T15:00:00.516Z,83.70
2022-10-05T15:02:45.014Z,83.80
2022-10-05T15:05:33.639Z,83.80
2022-10-05T15:08:31.253Z,83.80
2022-10-05T15:11:04.791Z,83.80
2022-10-05T15:13:38.439Z,84.00
2022-10-05T15:16:19.931Z,83.90
2022-10-05T15:19:44.821Z,83.90
2022-10-05T15:22:31.740Z,84.00
2022-10-05T15:25:21.526Z,84.00
2022-10-05T15:28:24.076Z,84.10
2022-10-05T15:31:02.582Z,84.20
2022-10-05T15:33:46.325Z,84.30
2022-10-05T15:37:16.130Z,84.30
2022-10-05T15:40:04.676Z,84.30
2022-10-05T15:42:38.384Z,84.40
2022-10-05T15:45:29.993Z,85.00
2022-10-05T15:48:01.608Z,84.50
2022-10-05T15:50:33.676Z,84.40
2022-10-05T15:53:25.694Z,84.40
2022-10-05T15:56:16.804Z,84.50
2022-10-05T15:58:58.056Z,84.50
2022-10-05T16:01:48.945Z,84.50
2022-10-05T16:04:39.306Z,84.60
2022-10-05T16:07:35.447Z,84.70
2022-10-05T16:10:19.985Z,84.60
2022-10-05T16:13:06.921Z,84.60
2022-10-05T16:15:33.644Z,84.60
2022-10-05T16:18:22.116Z,84.70
2022-10-05T16:20:55.298Z,84.70
2022-10-05T16:23:55.201Z,84.70
2022-10-05T16:26:38.603Z,84.80
2022-10-05T16:29:14.904Z,84.70
2022-10-05T16:32:05.784Z,84.70
2022-10-05T16:35:16.538Z,85.00
2022-10-05T16:38:07.766Z,84.90
2022-10-05T16:41:09.687Z,84.90
2022-10-05T16:43:44.962Z,85.00
2022-10-05T16:46:12.360Z,85.00
2022-10-05T16:49:11.532Z,85.10
2022-10-05T16:51:48.524Z,85.10
2022-10-05T16:54:20.170Z,85.10
2022-10-05T16:57:04.253Z,85.20
2022-10-05T16:59:36.408Z,85.30
2022-10-05T17:02:30.687Z,85.30
2022-10-05T17:05:12.290Z,85.40
2022-10-05T17:08:01.544Z,85.30
2022-10-05T17:10:46.904Z,85.40
2022-10-05T17:13:43.562Z,85.30
2022-10-05T17:16:39.170Z,85.40
2022-10-05T17:19:26.226Z,85.40
2022-10-05T17:22:12.774Z,85.30
2022-10-05T17:24:59.107Z,85.30
2022-10-05T17:27:51.156Z,85.30
2022-10-05T17:30:39.001Z,85.40
2022-10-05T17:33:26.031Z,85.50
2022-10-05T17:36:12.254Z,85.50
2022-10-05T17:39:07.594Z,85.50
2022-10-05T17:41:37.057Z,85.60
2022-10-05T17:44:16.192Z,85.60
2022-10-05T17:46:48.489Z,85.60
2022-10-05T17:49:41.427Z,85.60
2022-10-05T17:52:40.345Z,85.70
2022-10-05T17:55:25.828Z,85.70
2022-10-05T17:57:53.315Z,85.70
2022-10-05T18:00:25.814Z,85.70
2022-10-05T18:02:56.479Z,85.70
2022-10-05T18:05:28.740Z,85.70
2022-10-05T18:08:14.090Z,85.80
2022-10-05T18:11:19.824Z,85.80
2022-10-05T18:13:50.046Z,85.80
2022-10-05T18:16:53.871Z,85.80
2022-10-05T18:19:22.480Z,85.80
2022-10-05T18:22:27.664Z,85.90
2022-10-05T18:25:05.888Z,86.00
2022-10-05T18:27:58.345Z,86.00
2022-10-05T18:30:26.931Z,86.00
2022-10-05T18:32:59.922Z,86.00
2022-10-05T18:35:46.927Z,86.00
2022-10-05T18:38:39.610Z,86.00
2022-10-05T18:41:09.234Z,86.00
2022-10-05T18:43:44.426Z,86.10
2022-10-05T18:46:24.813Z,86.10
2022-10-05T18:49:10.662Z,86.10
2022-10-05T18:51:50.927Z,86.10
2022-10-05T18:54:25.007Z,86.10
2022-10-05T18:56:52.941Z,86.10
2022-10-05T18:59:52.631Z,86.20
2022-10-05T19:02:29.930Z,86.20
2022-10-05T19:05:05.357Z,86.20
2022-10-05T19:07:50.738Z,86.20
2022-10-05T19:10:30.282Z,86.20
2022-10-05T19:13:25.845Z,86.20
2022-10-05T19:16:22.472Z,86.30
2022-10-05T19:19:13.982Z,86.30
2022-10-05T19:21:59.368Z,86.30
2022-10-05T19:24:44.908Z,86.30
2022-10-05T19:27:17.389Z,86.40
2022-10-05T19:30:03.475Z,87.30
2022-10-05T19:33:04.865Z,87.50
2022-10-05T19:35:40.480Z,88.00
2022-10-05T19:38:36.436Z,88.40
2022-10-05T19:41:17.633Z,89.10
2022-10-05T19:44:06.670Z,90.00
2022-10-05T19:47:00.518Z,90.30
2022-10-05T19:49:43.008Z,90.40
2022-10-05T19:52:13.792Z,90.40
2022-10-05T19:54:41.867Z,90.20
2022-10-05T19:57:17.859Z,90.20
2022-10-05T19:59:48.380Z,91.10
2022-10-05T20:02:17.061Z,93.00
2022-10-05T20:04:49.329Z,93.00
2022-10-05T20:07:21.468Z,92.10
2022-10-05T20:09:51.284Z,91.60
2022-10-05T20:12:18.145Z,91.10
2022-10-05T20:15:03.427Z,90.80
2022-10-05T20:17:49.351Z,90.60
2022-10-05T20:20:48.472Z,90.30
2022-10-05T20:23:28.074Z,90.10
2022-10-05T20:26:13.235Z,90.30
2022-10-05T20:28:40.059Z,89.60
2022-10-05T20:31:08.020Z,89.50
2022-10-05T20:33:34.907Z,89.10
2022-10-05T20:36:03.862Z,88.80
2022-10-05T20:38:31.522Z,88.60
2022-10-05T20:40:58.533Z,88.40
2022-10-05T20:43:25.254Z,88.40
2022-10-05T20:45:52.271Z,88.30
2022-10-05T20:48:19.505Z,88.30
2022-10-05T20:50:47.302Z,88.00
2022-10-05T20:53:14.086Z,87.90
2022-10-05T20:55:40.791Z,87.80
2022-10-05T20:58:08.991Z,87.70
2022-10-05T21:00:54.241Z,87.40
2022-10-05T21:03:20.996Z,87.50
2022-10-05T21:05:47.911Z,87.30
2022-10-05T21:08:15.168Z,87.20
2022-10-05T21:10:41.899Z,87.20
2022-10-05T21:13:09.085Z,87.20
2022-10-05T21:15:35.880Z,87.10
2022-10-05T21:18:02.548Z,87.00
2022-10-05T21:20:29.305Z,86.50
2022-10-05T21:22:55.979Z,86.40
2022-10-05T21:25:22.660Z,86.40
2022-10-05T21:27:50.162Z,87.00
2022-10-05T21:30:16.950Z,87.60
2022-10-05T21:32:44.794Z,88.10
2022-10-05T21:35:11.864Z,88.20
2022-10-05T21:37:38.578Z,88.30
2022-10-05T21:40:05.982Z,88.40
2022-10-05T21:42:32.810Z,88.40
2022-10-05T21:44:59.482Z,88.30
2022-10-05T21:47:26.524Z,89.00
2022-10-05T21:49:53.716Z,88.20
2022-10-05T21:52:21.073Z,88.20
2022-10-05T21:54:47.866Z,88.30
2022-10-05T21:57:15.347Z,88.30
2022-10-05T21:59:42.908Z,88.20
2022-10-05T22:02:09.588Z,88.20
2022-10-05T22:04:36.384Z,88.30
2022-10-05T22:07:14.014Z,88.30
2022-10-05T22:09:40.664Z,88.20
2022-10-05T22:12:07.342Z,88.20
2022-10-05T22:14:34.000Z,88.20
2022-10-05T22:17:00.694Z,88.30
2022-10-05T22:19:27.478Z,88.40
2022-10-05T22:21:54.689Z,88.60
2022-10-05T22:24:21.409Z,89.00
2022-10-05T22:26:51.528Z,89.20
2022-10-05T22:29:19.946Z,89.30
2022-10-05T22:31:48.792Z,89.50
2022-10-05T22:34:16.787Z,89.70
2022-10-05T22:36:43.819Z,89.80
2022-10-05T22:39:10.480Z,89.80
2022-10-05T22:41:37.151Z,90.00
2022-10-05T22:44:04.296Z,90.00
2022-10-05T22:46:31.086Z,90.00
2022-10-05T22:48:57.885Z,90.20
2022-10-05T22:51:24.608Z,90.10
2022-10-05T22:53:51.269Z,90.10
2022-10-05T22:56:18.084Z,90.10
2022-10-05T22:58:45.801Z,90.10
2022-10-05T23:01:15.522Z,90.10
2022-10-05T23:03:42.444Z,90.10
2022-10-05T23:06:15.108Z,90.10
2022-10-05T23:08:42.369Z,90.10
2022-10-05T23:11:17.944Z,90.10
2022-10-05T23:13:45.199Z,90.10
2022-10-05T23:16:14.822Z,90.10
2022-10-05T23:18:42.456Z,90.00
2022-10-05T23:21:10.519Z,90.00
2022-10-05T23:23:42.468Z,89.80
2022-10-05T23:26:10.824Z,89.80
2022-10-05T23:28:49.112Z,89.60
2022-10-05T23:31:21.800Z,89.50
2022-10-05T23:33:48.828Z,89.50
2022-10-05T23:36:23.172Z,89.50
2022-10-05T23:38:50.595Z,89.50
2022-10-05T23:41:17.972Z,89.40
2022-10-05T23:43:44.656Z,89.40
2022-10-05T23:46:12.307Z,89.30
2022-10-05T23:48:39.624Z,89.30
2022-10-05T23:51:08.316Z,89.50
2022-10-05T23:53:35.281Z,89.30
2022-10-05T23:56:02.332Z,89.30
2022-10-05T23:58:29.467Z,89.40
